NCAR-RAP Real-Time Weather Data

Output produced by METARs form (01 October 2022  04:52 UTC)
found at http://weather.rap.ucar.edu/surface/
 
VDSR 010430Z 21006KT 160V240 9999 SCT015 31/25 Q1008
VDSR 010400Z 20004KT 140V240 9999 SCT015 31/24 Q1008
VDSR 010330Z 17005KT 140V200 9999 SCT015 30/25 Q1008
VDSR 010300Z 18005KT 130V230 9999 SCT015 30/25 Q1009
VDSR 010230Z 18006KT 150V220 9999 SCT015 29/24 Q1008
VDSR 010200Z 17006KT 9999 SCT015 29/24 Q1008
VDSR 010130Z 11003KT 080V150 9999 SCT015 29/25 Q1008
VDSR 010100Z 11003KT 080V150 9999 SCT015 28/25 Q1008
VDSR 010030Z 11003KT 9999 SCT015 27/25 Q1008
VDSR 010000Z 11003KT 090V150 9999 SCT015 26/24 Q1007
VDSR 302330Z 09003KT 9000 SCT015 SCT040 25/24 Q1007
VDSR 302300Z 08003KT 9000 SCT015 SCT040 26/24 Q1007